Tri Cities Regional Tn Va Airport
KTRI : now visible

Airfield :











YOU CAN JOIN US ON...

 
LOGIN :

Register | Disclaimer

   EN    FR    IT 

 









Legend :    VFR   Marginal VFR   IFR   Intensive IFR   Very Intensive IFR
Visi :
Ceiling :
>= 8 km
>= 3000ft
5 to 8 km
1000 to 3000 ft
1500m to 5 km
500 to 1000 ft
800 to 1500m
200 to 500 ft
< 800m
< 200 ft
Symbols :   Thunderstorms  Fog  Heavy snow  Heavy precipitations  Wind > 20 kt







- Airport Elevation : 1519 ft
- IATA code : TRI


KTRI - Tri Cities Regional Tn Va

CURRENT METAR :
  • 210653Z 00000KT 10SM BKN040 22/21 A3006 RMK AO2 SLP151 T02220211

EXPIRED METARs :
  • 210553Z 00000KT 10SM BKN040 23/22 A3007 RMK AO2 SLP153 T02280217 10289 20228 50001
  • 210453Z 00000KT 10SM SCT040 23/22 A3007 RMK AO2 SLP154 T02330217 403220211

TAF KTRI
Valid from the 21 at 06:00 until the 22 at 06:00 UTC


210520Z 2106/2206 VRB03KT P6SM SCT040
FM210800 00000KT 3SM BR BKN250
FM211000 00000KT 1SM BR SCT005 BKN250
FM211300 VRB04KT P6SM BKN025
FM211600 23004KT P6SM SCT030 BKN250
FM211800 21003KT P6SM SCT040
PROB30 2118/2121 4SM TSRA BKN040CB
FM212100 24005KT P6SM SCT040 BKN150
KZTL FIR / North America



MET'MAP, your aeronautical weather chart ! - Copyright ORBIFLY December 2007 - Disclaimer

ORBIFLY MET'MAP TEAM :

Programming & Development : Alexandra Zaïnal
Concept & Development : Baudouin d'Aumeries
Co-Development & Prog : Marc-Olivier Méhu
Technical & hardware support : Manuel Goepfert

Contact : metmap@orbifly.com




SOURCES & CREDITS :

   NOAA       Earth
Advisory